sensor_id;sensor_type;location;lat;lon;timestamp;P1;durP1;ratioP1;P2;durP2;ratioP2
12288;SDS011;6207;49.308;7.336;2023-04-01T00:01:09;8.07;;;5.73;;
12288;SDS011;6207;49.308;7.336;2023-04-01T00:03:38;5.70;;;5.40;;
12288;SDS011;6207;49.308;7.336;2023-04-01T00:06:05;5.53;;;5.33;;
12288;SDS011;6207;49.308;7.336;2023-04-01T00:08:31;6.17;;;5.70;;
12288;SDS011;6207;49.308;7.336;2023-04-01T00:10:58;6.50;;;5.90;;
12288;SDS011;6207;49.308;7.336;2023-04-01T00:13:26;6.77;;;6.23;;
12288;SDS011;6207;49.308;7.336;2023-04-01T00:15:53;6.13;;;5.73;;
12288;SDS011;6207;49.308;7.336;2023-04-01T00:18:21;6.87;;;6.33;;
12288;SDS011;6207;49.308;7.336;2023-04-01T00:20:49;6.30;;;5.90;;
12288;SDS011;6207;49.308;7.336;2023-04-01T00:23:18;6.53;;;6.03;;
12288;SDS011;6207;49.308;7.336;2023-04-01T00:25:46;6.30;;;5.90;;
12288;SDS011;6207;49.308;7.336;2023-04-01T00:28:18;6.80;;;6.40;;
12288;SDS011;6207;49.308;7.336;2023-04-01T00:30:46;6.80;;;6.40;;
12288;SDS011;6207;49.308;7.336;2023-04-01T00:33:13;6.57;;;6.00;;
12288;SDS011;6207;49.308;7.336;2023-04-01T00:35:40;6.50;;;6.10;;
12288;SDS011;6207;49.308;7.336;2023-04-01T00:38:06;6.30;;;5.90;;
12288;SDS011;6207;49.308;7.336;2023-04-01T00:40:34;6.80;;;6.40;;
12288;SDS011;6207;49.308;7.336;2023-04-01T00:43:09;6.50;;;6.10;;
12288;SDS011;6207;49.308;7.336;2023-04-01T00:45:39;6.70;;;6.10;;
12288;SDS011;6207;49.308;7.336;2023-04-01T00:48:12;6.90;;;6.33;;
12288;SDS011;6207;49.308;7.336;2023-04-01T00:53:48;7.33;;;6.83;;
12288;SDS011;6207;49.308;7.336;2023-04-01T00:56:18;7.73;;;6.43;;
12288;SDS011;6207;49.308;7.336;2023-04-01T00:58:49;11.30;;;6.80;;
12288;SDS011;6207;49.308;7.336;2023-04-01T01:01:21;7.00;;;6.30;;
12288;SDS011;6207;49.308;7.336;2023-04-01T01:03:50;6.50;;;6.10;;
12288;SDS011;6207;49.308;7.336;2023-04-01T01:15:11;6.40;;;6.00;;
12288;SDS011;6207;49.308;7.336;2023-04-01T01:17:44;7.40;;;6.93;;
12288;SDS011;6207;49.308;7.336;2023-04-01T01:28:37;9.00;;;6.93;;
12288;SDS011;6207;49.308;7.336;2023-04-01T01:31:44;7.37;;;6.87;;
12288;SDS011;6207;49.308;7.336;2023-04-01T01:34:36;6.60;;;6.20;;
12288;SDS011;6207;49.308;7.336;2023-04-01T01:37:14;7.17;;;6.33;;
12288;SDS011;6207;49.308;7.336;2023-04-01T01:39:44;6.83;;;6.43;;
12288;SDS011;6207;49.308;7.336;2023-04-01T01:42:15;7.57;;;7.07;;
12288;SDS011;6207;49.308;7.336;2023-04-01T01:44:44;6.43;;;6.00;;
12288;SDS011;6207;49.308;7.336;2023-04-01T01:47:13;6.57;;;6.13;;
12288;SDS011;6207;49.308;7.336;2023-04-01T01:49:41;6.50;;;6.03;;
12288;SDS011;6207;49.308;7.336;2023-04-01T01:52:10;7.03;;;6.30;;
12288;SDS011;6207;49.308;7.336;2023-04-01T01:54:51;6.30;;;6.00;;
12288;SDS011;6207;49.308;7.336;2023-04-01T01:57:21;6.70;;;6.10;;
12288;SDS011;6207;49.308;7.336;2023-04-01T01:59:51;6.23;;;5.73;;
12288;SDS011;6207;49.308;7.336;2023-04-01T02:02:21;5.73;;;5.30;;
12288;SDS011;6207;49.308;7.336;2023-04-01T02:04:49;10.63;;;5.70;;
12288;SDS011;6207;49.308;7.336;2023-04-01T02:07:22;5.70;;;5.30;;
12288;SDS011;6207;49.308;7.336;2023-04-01T02:09:53;6.00;;;5.60;;
12288;SDS011;6207;49.308;7.336;2023-04-01T02:12:20;7.73;;;6.17;;
12288;SDS011;6207;49.308;7.336;2023-04-01T02:15:00;6.00;;;5.70;;
12288;SDS011;6207;49.308;7.336;2023-04-01T02:17:34;5.53;;;5.13;;
12288;SDS011;6207;49.308;7.336;2023-04-01T02:22:36;6.17;;;5.57;;
12288;SDS011;6207;49.308;7.336;2023-04-01T02:25:08;5.40;;;5.00;;
12288;SDS011;6207;49.308;7.336;2023-04-01T02:27:38;5.23;;;4.83;;
12288;SDS011;6207;49.308;7.336;2023-04-01T02:30:07;5.10;;;4.70;;
12288;SDS011;6207;49.308;7.336;2023-04-01T02:32:35;5.40;;;4.90;;
12288;SDS011;6207;49.308;7.336;2023-04-01T02:35:09;5.60;;;5.10;;
12288;SDS011;6207;49.308;7.336;2023-04-01T02:37:37;5.33;;;4.70;;
12288;SDS011;6207;49.308;7.336;2023-04-01T02:40:08;5.97;;;5.23;;
12288;SDS011;6207;49.308;7.336;2023-04-01T02:42:37;11.33;;;5.33;;
12288;SDS011;6207;49.308;7.336;2023-04-01T02:45:05;5.20;;;4.70;;
12288;SDS011;6207;49.308;7.336;2023-04-01T02:47:32;5.03;;;4.63;;
12288;SDS011;6207;49.308;7.336;2023-04-01T02:49:59;4.93;;;4.70;;
12288;SDS011;6207;49.308;7.336;2023-04-01T02:52:26;5.20;;;4.90;;
12288;SDS011;6207;49.308;7.336;2023-04-01T02:54:53;6.20;;;4.83;;
12288;SDS011;6207;49.308;7.336;2023-04-01T02:57:21;5.77;;;5.27;;
12288;SDS011;6207;49.308;7.336;2023-04-01T02:59:48;6.77;;;5.40;;
12288;SDS011;6207;49.308;7.336;2023-04-01T03:02:14;5.30;;;4.90;;
12288;SDS011;6207;49.308;7.336;2023-04-01T03:04:42;8.20;;;7.47;;
12288;SDS011;6207;49.308;7.336;2023-04-01T03:07:09;4.97;;;4.70;;
12288;SDS011;6207;49.308;7.336;2023-04-01T03:09:36;4.50;;;4.30;;
12288;SDS011;6207;49.308;7.336;2023-04-01T03:12:04;4.97;;;4.77;;
12288;SDS011;6207;49.308;7.336;2023-04-01T03:14:30;5.17;;;4.83;;
12288;SDS011;6207;49.308;7.336;2023-04-01T03:16:57;5.50;;;5.00;;
12288;SDS011;6207;49.308;7.336;2023-04-01T03:19:24;4.73;;;4.43;;
12288;SDS011;6207;49.308;7.336;2023-04-01T03:21:50;5.40;;;5.20;;
12288;SDS011;6207;49.308;7.336;2023-04-01T03:24:19;6.47;;;5.20;;
12288;SDS011;6207;49.308;7.336;2023-04-01T03:26:46;4.90;;;4.70;;
12288;SDS011;6207;49.308;7.336;2023-04-01T03:29:13;6.17;;;5.57;;
12288;SDS011;6207;49.308;7.336;2023-04-01T03:31:41;5.20;;;4.93;;
12288;SDS011;6207;49.308;7.336;2023-04-01T03:34:08;5.63;;;5.20;;
12288;SDS011;6207;49.308;7.336;2023-04-01T03:36:35;5.73;;;5.40;;
12288;SDS011;6207;49.308;7.336;2023-04-01T03:39:02;6.30;;;5.77;;
12288;SDS011;6207;49.308;7.336;2023-04-01T03:41:29;6.13;;;5.80;;
12288;SDS011;6207;49.308;7.336;2023-04-01T03:43:58;6.27;;;5.67;;
12288;SDS011;6207;49.308;7.336;2023-04-01T03:46:24;9.57;;;6.00;;
12288;SDS011;6207;49.308;7.336;2023-04-01T03:48:51;6.10;;;5.30;;
12288;SDS011;6207;49.308;7.336;2023-04-01T03:51:18;5.17;;;4.87;;
12288;SDS011;6207;49.308;7.336;2023-04-01T03:53:44;5.57;;;5.07;;
12288;SDS011;6207;49.308;7.336;2023-04-01T03:56:11;5.80;;;5.40;;
12288;SDS011;6207;49.308;7.336;2023-04-01T03:58:38;5.93;;;5.20;;
12288;SDS011;6207;49.308;7.336;2023-04-01T04:01:15;5.30;;;5.00;;
12288;SDS011;6207;49.308;7.336;2023-04-01T04:03:47;5.53;;;5.03;;
12288;SDS011;6207;49.308;7.336;2023-04-01T04:06:16;5.90;;;5.40;;
12288;SDS011;6207;49.308;7.336;2023-04-01T04:08:44;6.03;;;5.50;;
12288;SDS011;6207;49.308;7.336;2023-04-01T04:11:11;5.07;;;4.77;;
12288;SDS011;6207;49.308;7.336;2023-04-01T04:13:38;5.40;;;4.90;;
12288;SDS011;6207;49.308;7.336;2023-04-01T04:16:05;5.70;;;5.20;;
12288;SDS011;6207;49.308;7.336;2023-04-01T04:18:32;5.90;;;5.40;;
12288;SDS011;6207;49.308;7.336;2023-04-01T04:20:59;5.93;;;5.33;;
12288;SDS011;6207;49.308;7.336;2023-04-01T04:23:25;5.70;;;5.40;;
12288;SDS011;6207;49.308;7.336;2023-04-01T04:26:14;5.53;;;5.23;;
12288;SDS011;6207;49.308;7.336;2023-04-01T04:28:41;5.03;;;4.73;;
12288;SDS011;6207;49.308;7.336;2023-04-01T04:31:07;5.30;;;4.90;;
12288;SDS011;6207;49.308;7.336;2023-04-01T04:33:34;5.93;;;5.20;;
12288;SDS011;6207;49.308;7.336;2023-04-01T04:36:02;5.13;;;4.73;;
12288;SDS011;6207;49.308;7.336;2023-04-01T04:38:29;8.03;;;5.77;;
12288;SDS011;6207;49.308;7.336;2023-04-01T04:40:57;5.70;;;5.20;;
12288;SDS011;6207;49.308;7.336;2023-04-01T04:43:24;6.07;;;5.57;;
12288;SDS011;6207;49.308;7.336;2023-04-01T04:45:50;5.60;;;5.10;;
12288;SDS011;6207;49.308;7.336;2023-04-01T04:48:17;4.80;;;4.50;;
12288;SDS011;6207;49.308;7.336;2023-04-01T04:50:48;5.10;;;4.67;;
12288;SDS011;6207;49.308;7.336;2023-04-01T04:53:17;5.27;;;4.83;;
12288;SDS011;6207;49.308;7.336;2023-04-01T04:55:45;6.03;;;5.23;;
12288;SDS011;6207;49.308;7.336;2023-04-01T04:58:14;4.80;;;4.50;;
12288;SDS011;6207;49.308;7.336;2023-04-01T05:00:41;4.60;;;4.30;;
12288;SDS011;6207;49.308;7.336;2023-04-01T05:03:08;5.23;;;4.80;;
12288;SDS011;6207;49.308;7.336;2023-04-01T05:05:35;4.80;;;4.30;;
12288;SDS011;6207;49.308;7.336;2023-04-01T05:08:02;7.63;;;4.33;;
12288;SDS011;6207;49.308;7.336;2023-04-01T05:10:29;5.77;;;4.73;;
12288;SDS011;6207;49.308;7.336;2023-04-01T05:12:57;4.53;;;4.10;;
12288;SDS011;6207;49.308;7.336;2023-04-01T05:15:24;4.67;;;4.37;;
12288;SDS011;6207;49.308;7.336;2023-04-01T05:17:51;4.47;;;4.27;;
12288;SDS011;6207;49.308;7.336;2023-04-01T05:20:18;4.33;;;4.10;;
12288;SDS011;6207;49.308;7.336;2023-04-01T05:22:44;4.40;;;4.10;;
12288;SDS011;6207;49.308;7.336;2023-04-01T05:25:11;9.03;;;4.30;;
12288;SDS011;6207;49.308;7.336;2023-04-01T05:27:38;5.87;;;4.10;;
12288;SDS011;6207;49.308;7.336;2023-04-01T05:30:06;5.30;;;4.80;;
12288;SDS011;6207;49.308;7.336;2023-04-01T05:32:33;5.47;;;5.03;;
12288;SDS011;6207;49.308;7.336;2023-04-01T05:34:59;5.30;;;4.83;;
12288;SDS011;6207;49.308;7.336;2023-04-01T05:37:26;5.27;;;4.87;;
12288;SDS011;6207;49.308;7.336;2023-04-01T05:39:53;5.00;;;4.80;;
12288;SDS011;6207;49.308;7.336;2023-04-01T05:42:19;5.47;;;5.03;;
12288;SDS011;6207;49.308;7.336;2023-04-01T05:44:46;5.27;;;4.97;;
12288;SDS011;6207;49.308;7.336;2023-04-01T05:47:13;5.23;;;4.80;;
12288;SDS011;6207;49.308;7.336;2023-04-01T05:49:39;4.37;;;4.00;;
12288;SDS011;6207;49.308;7.336;2023-04-01T05:52:06;4.40;;;4.20;;
12288;SDS011;6207;49.308;7.336;2023-04-01T05:54:33;6.70;;;4.87;;
12288;SDS011;6207;49.308;7.336;2023-04-01T05:57:00;4.40;;;4.10;;
12288;SDS011;6207;49.308;7.336;2023-04-01T05:59:27;4.73;;;4.43;;
12288;SDS011;6207;49.308;7.336;2023-04-01T06:01:53;5.03;;;4.63;;
12288;SDS011;6207;49.308;7.336;2023-04-01T06:04:20;4.80;;;4.33;;
12288;SDS011;6207;49.308;7.336;2023-04-01T06:06:47;5.73;;;4.70;;
12288;SDS011;6207;49.308;7.336;2023-04-01T06:09:15;4.13;;;3.90;;
12288;SDS011;6207;49.308;7.336;2023-04-01T06:14:24;3.67;;;3.47;;
12288;SDS011;6207;49.308;7.336;2023-04-01T06:25:58;4.77;;;3.70;;
12288;SDS011;6207;49.308;7.336;2023-04-01T06:36:22;4.30;;;3.90;;
12288;SDS011;6207;49.308;7.336;2023-04-01T06:39:22;4.77;;;4.47;;
12288;SDS011;6207;49.308;7.336;2023-04-01T06:42:20;4.20;;;4.00;;
12288;SDS011;6207;49.308;7.336;2023-04-01T06:48:00;4.63;;;4.33;;
12288;SDS011;6207;49.308;7.336;2023-04-01T06:51:25;4.13;;;3.90;;
12288;SDS011;6207;49.308;7.336;2023-04-01T06:53:54;3.90;;;3.70;;
12288;SDS011;6207;49.308;7.336;2023-04-01T06:56:29;3.80;;;3.60;;
12288;SDS011;6207;49.308;7.336;2023-04-01T06:59:00;3.67;;;3.37;;
12288;SDS011;6207;49.308;7.336;2023-04-01T07:01:38;3.53;;;3.33;;
12288;SDS011;6207;49.308;7.336;2023-04-01T07:04:14;3.70;;;3.50;;
12288;SDS011;6207;49.308;7.336;2023-04-01T07:09:26;3.20;;;3.10;;
12288;SDS011;6207;49.308;7.336;2023-04-01T07:11:59;3.50;;;3.30;;
12288;SDS011;6207;49.308;7.336;2023-04-01T07:14:38;3.13;;;2.93;;
12288;SDS011;6207;49.308;7.336;2023-04-01T07:17:09;2.60;;;2.50;;
12288;SDS011;6207;49.308;7.336;2023-04-01T07:22:22;4.23;;;3.60;;
12288;SDS011;6207;49.308;7.336;2023-04-01T07:25:07;3.63;;;3.43;;
12288;SDS011;6207;49.308;7.336;2023-04-01T07:27:43;3.00;;;2.90;;
12288;SDS011;6207;49.308;7.336;2023-04-01T07:30:21;4.47;;;4.07;;
12288;SDS011;6207;49.308;7.336;2023-04-01T07:32:57;3.93;;;3.73;;
12288;SDS011;6207;49.308;7.336;2023-04-01T07:35:47;3.60;;;3.40;;
12288;SDS011;6207;49.308;7.336;2023-04-01T07:38:26;3.70;;;3.50;;
12288;SDS011;6207;49.308;7.336;2023-04-01T07:49:57;4.73;;;4.47;;
12288;SDS011;6207;49.308;7.336;2023-04-01T07:55:16;3.97;;;3.77;;
12288;SDS011;6207;49.308;7.336;2023-04-01T08:01:02;3.90;;;3.70;;
12288;SDS011;6207;49.308;7.336;2023-04-01T08:03:45;4.70;;;4.40;;
12288;SDS011;6207;49.308;7.336;2023-04-01T08:06:33;4.10;;;3.90;;
12288;SDS011;6207;49.308;7.336;2023-04-01T08:11:41;4.20;;;4.00;;
12288;SDS011;6207;49.308;7.336;2023-04-01T08:14:22;4.73;;;4.33;;
12288;SDS011;6207;49.308;7.336;2023-04-01T08:19:31;3.77;;;3.57;;
12288;SDS011;6207;49.308;7.336;2023-04-01T08:22:04;3.90;;;3.70;;
12288;SDS011;6207;49.308;7.336;2023-04-01T08:24:55;3.80;;;3.50;;
12288;SDS011;6207;49.308;7.336;2023-04-01T08:27:31;3.60;;;3.40;;
12288;SDS011;6207;49.308;7.336;2023-04-01T08:30:04;4.00;;;3.80;;
12288;SDS011;6207;49.308;7.336;2023-04-01T08:32:43;3.97;;;3.77;;
12288;SDS011;6207;49.308;7.336;2023-04-01T08:38:18;3.80;;;3.60;;
12288;SDS011;6207;49.308;7.336;2023-04-01T09:00:38;6.03;;;5.63;;
12288;SDS011;6207;49.308;7.336;2023-04-01T09:12:08;3.53;;;3.40;;
12288;SDS011;6207;49.308;7.336;2023-04-01T09:31:23;4.10;;;3.90;;
12288;SDS011;6207;49.308;7.336;2023-04-01T09:37:08;4.00;;;3.80;;
12288;SDS011;6207;49.308;7.336;2023-04-01T09:39:42;3.97;;;3.77;;
12288;SDS011;6207;49.308;7.336;2023-04-01T09:42:42;3.87;;;3.67;;
12288;SDS011;6207;49.308;7.336;2023-04-01T09:48:00;4.20;;;4.00;;
12288;SDS011;6207;49.308;7.336;2023-04-01T09:53:36;3.93;;;3.73;;
12288;SDS011;6207;49.308;7.336;2023-04-01T10:01:57;4.20;;;4.00;;
12288;SDS011;6207;49.308;7.336;2023-04-01T10:07:41;4.20;;;4.00;;
12288;SDS011;6207;49.308;7.336;2023-04-01T10:12:54;4.23;;;3.87;;
12288;SDS011;6207;49.308;7.336;2023-04-01T10:21:57;4.00;;;3.80;;
12288;SDS011;6207;49.308;7.336;2023-04-01T10:24:48;4.10;;;3.90;;
12288;SDS011;6207;49.308;7.336;2023-04-01T10:41:45;4.60;;;4.40;;
12288;SDS011;6207;49.308;7.336;2023-04-01T10:44:52;4.87;;;4.60;;
12288;SDS011;6207;49.308;7.336;2023-04-01T10:52:58;5.17;;;4.97;;
12288;SDS011;6207;49.308;7.336;2023-04-01T10:56:09;4.90;;;4.70;;
12288;SDS011;6207;49.308;7.336;2023-04-01T11:13:59;5.73;;;5.43;;
12288;SDS011;6207;49.308;7.336;2023-04-01T11:30:49;4.80;;;4.40;;
12288;SDS011;6207;49.308;7.336;2023-04-01T11:36:33;4.60;;;4.40;;
12288;SDS011;6207;49.308;7.336;2023-04-01T11:45:23;5.20;;;4.90;;
12288;SDS011;6207;49.308;7.336;2023-04-01T11:48:16;5.10;;;4.90;;
12288;SDS011;6207;49.308;7.336;2023-04-01T12:01:49;5.40;;;5.10;;
12288;SDS011;6207;49.308;7.336;2023-04-01T12:04:32;5.27;;;4.87;;
12288;SDS011;6207;49.308;7.336;2023-04-01T12:09:39;4.70;;;4.50;;
12288;SDS011;6207;49.308;7.336;2023-04-01T12:15:31;5.00;;;4.80;;
12288;SDS011;6207;49.308;7.336;2023-04-01T12:18:15;4.70;;;4.50;;
12288;SDS011;6207;49.308;7.336;2023-04-01T12:36:57;5.27;;;5.00;;
12288;SDS011;6207;49.308;7.336;2023-04-01T12:40:13;5.10;;;4.80;;
12288;SDS011;6207;49.308;7.336;2023-04-01T12:51:29;5.63;;;5.23;;
12288;SDS011;6207;49.308;7.336;2023-04-01T12:57:25;5.83;;;5.33;;
12288;SDS011;6207;49.308;7.336;2023-04-01T13:19:12;4.80;;;4.60;;
12288;SDS011;6207;49.308;7.336;2023-04-01T13:27:05;5.03;;;4.80;;
12288;SDS011;6207;49.308;7.336;2023-04-01T13:43:31;4.67;;;4.37;;
12288;SDS011;6207;49.308;7.336;2023-04-01T13:46:16;4.60;;;4.40;;
12288;SDS011;6207;49.308;7.336;2023-04-01T13:52:08;4.40;;;4.20;;
12288;SDS011;6207;49.308;7.336;2023-04-01T13:57:29;5.00;;;4.80;;
12288;SDS011;6207;49.308;7.336;2023-04-01T14:02:50;5.00;;;4.70;;
12288;SDS011;6207;49.308;7.336;2023-04-01T14:05:31;5.37;;;5.07;;
12288;SDS011;6207;49.308;7.336;2023-04-01T14:25:21;4.60;;;4.40;;
12288;SDS011;6207;49.308;7.336;2023-04-01T14:33:56;5.20;;;4.80;;
12288;SDS011;6207;49.308;7.336;2023-04-01T14:36:34;5.10;;;4.80;;
12288;SDS011;6207;49.308;7.336;2023-04-01T14:41:56;4.20;;;4.00;;
12288;SDS011;6207;49.308;7.336;2023-04-01T14:47:50;5.00;;;4.70;;
12288;SDS011;6207;49.308;7.336;2023-04-01T14:55:52;5.83;;;5.53;;
12288;SDS011;6207;49.308;7.336;2023-04-01T14:58:22;5.50;;;5.20;;
12288;SDS011;6207;49.308;7.336;2023-04-01T15:01:13;5.97;;;5.60;;
12288;SDS011;6207;49.308;7.336;2023-04-01T15:11:57;5.10;;;4.90;;
12288;SDS011;6207;49.308;7.336;2023-04-01T15:14:35;5.10;;;4.90;;
12288;SDS011;6207;49.308;7.336;2023-04-01T15:20:55;4.90;;;4.70;;
12288;SDS011;6207;49.308;7.336;2023-04-01T15:31:21;5.80;;;5.50;;
12288;SDS011;6207;49.308;7.336;2023-04-01T15:34:15;5.53;;;5.20;;
12288;SDS011;6207;49.308;7.336;2023-04-01T15:40:17;5.80;;;5.40;;
12288;SDS011;6207;49.308;7.336;2023-04-01T15:43:09;7.07;;;6.47;;
12288;SDS011;6207;49.308;7.336;2023-04-01T16:08:09;6.50;;;6.00;;
12288;SDS011;6207;49.308;7.336;2023-04-01T16:13:16;4.67;;;4.47;;
12288;SDS011;6207;49.308;7.336;2023-04-01T16:21:10;5.10;;;4.80;;
12288;SDS011;6207;49.308;7.336;2023-04-01T16:24:00;4.83;;;4.63;;
12288;SDS011;6207;49.308;7.336;2023-04-01T16:26:39;5.40;;;5.00;;
12288;SDS011;6207;49.308;7.336;2023-04-01T16:29:24;4.87;;;4.67;;
12288;SDS011;6207;49.308;7.336;2023-04-01T16:35:03;5.10;;;4.90;;
12288;SDS011;6207;49.308;7.336;2023-04-01T16:37:37;5.03;;;4.73;;
12288;SDS011;6207;49.308;7.336;2023-04-01T16:45:17;5.30;;;5.00;;
12288;SDS011;6207;49.308;7.336;2023-04-01T16:47:56;5.73;;;5.33;;
12288;SDS011;6207;49.308;7.336;2023-04-01T16:50:48;5.40;;;5.10;;
12288;SDS011;6207;49.308;7.336;2023-04-01T16:53:41;5.00;;;4.80;;
12288;SDS011;6207;49.308;7.336;2023-04-01T16:56:11;5.40;;;5.10;;
12288;SDS011;6207;49.308;7.336;2023-04-01T17:01:28;5.53;;;5.23;;
12288;SDS011;6207;49.308;7.336;2023-04-01T17:04:14;4.90;;;4.70;;
12288;SDS011;6207;49.308;7.336;2023-04-01T17:07:05;5.13;;;4.93;;
12288;SDS011;6207;49.308;7.336;2023-04-01T17:15:36;5.03;;;4.83;;
12288;SDS011;6207;49.308;7.336;2023-04-01T17:20:38;5.30;;;5.10;;
12288;SDS011;6207;49.308;7.336;2023-04-01T17:23:24;5.77;;;5.37;;
12288;SDS011;6207;49.308;7.336;2023-04-01T17:26:36;5.50;;;5.20;;
12288;SDS011;6207;49.308;7.336;2023-04-01T17:29:09;5.47;;;5.07;;
12288;SDS011;6207;49.308;7.336;2023-04-01T17:34:24;4.30;;;4.10;;
12288;SDS011;6207;49.308;7.336;2023-04-01T17:39:47;5.23;;;4.90;;
12288;SDS011;6207;49.308;7.336;2023-04-01T17:56:43;4.70;;;4.50;;
12288;SDS011;6207;49.308;7.336;2023-04-01T17:59:37;5.30;;;4.90;;
12288;SDS011;6207;49.308;7.336;2023-04-01T18:05:01;4.63;;;4.43;;
12288;SDS011;6207;49.308;7.336;2023-04-01T18:16:33;4.63;;;4.33;;
12288;SDS011;6207;49.308;7.336;2023-04-01T18:19:27;4.40;;;4.10;;
12288;SDS011;6207;49.308;7.336;2023-04-01T18:22:19;4.57;;;4.37;;
12288;SDS011;6207;49.308;7.336;2023-04-01T18:24:58;6.40;;;5.90;;
12288;SDS011;6207;49.308;7.336;2023-04-01T18:27:44;6.40;;;5.80;;
12288;SDS011;6207;49.308;7.336;2023-04-01T18:30:15;5.13;;;4.80;;
12288;SDS011;6207;49.308;7.336;2023-04-01T18:32:56;4.90;;;4.43;;
12288;SDS011;6207;49.308;7.336;2023-04-01T18:35:45;4.63;;;4.33;;
12288;SDS011;6207;49.308;7.336;2023-04-01T18:38:26;4.87;;;4.57;;
12288;SDS011;6207;49.308;7.336;2023-04-01T18:47:11;4.73;;;4.53;;
12288;SDS011;6207;49.308;7.336;2023-04-01T18:50:24;5.10;;;4.70;;
12288;SDS011;6207;49.308;7.336;2023-04-01T18:53:09;5.00;;;4.50;;
12288;SDS011;6207;49.308;7.336;2023-04-01T18:58:42;5.10;;;4.90;;
12288;SDS011;6207;49.308;7.336;2023-04-01T19:07:26;4.60;;;4.30;;
12288;SDS011;6207;49.308;7.336;2023-04-01T19:13:18;5.07;;;4.77;;
12288;SDS011;6207;49.308;7.336;2023-04-01T19:18:49;4.80;;;4.40;;
12288;SDS011;6207;49.308;7.336;2023-04-01T19:21:43;5.20;;;4.90;;
12288;SDS011;6207;49.308;7.336;2023-04-01T19:32:30;4.33;;;4.13;;
12288;SDS011;6207;49.308;7.336;2023-04-01T19:47:02;5.20;;;4.90;;
12288;SDS011;6207;49.308;7.336;2023-04-01T19:49:52;4.50;;;4.30;;
12288;SDS011;6207;49.308;7.336;2023-04-01T19:52:41;4.83;;;4.53;;
12288;SDS011;6207;49.308;7.336;2023-04-01T19:57:46;5.03;;;4.63;;
12288;SDS011;6207;49.308;7.336;2023-04-01T20:00:31;4.87;;;4.60;;
12288;SDS011;6207;49.308;7.336;2023-04-01T20:06:18;4.77;;;4.47;;
12288;SDS011;6207;49.308;7.336;2023-04-01T20:11:40;5.37;;;4.90;;
12288;SDS011;6207;49.308;7.336;2023-04-01T20:17:15;4.37;;;4.17;;
12288;SDS011;6207;49.308;7.336;2023-04-01T20:22:29;4.83;;;4.53;;
12288;SDS011;6207;49.308;7.336;2023-04-01T20:27:51;4.37;;;4.17;;
12288;SDS011;6207;49.308;7.336;2023-04-01T20:30:44;4.57;;;4.37;;
12288;SDS011;6207;49.308;7.336;2023-04-01T20:36:00;5.30;;;4.90;;
12288;SDS011;6207;49.308;7.336;2023-04-01T20:41:45;4.93;;;4.63;;
12288;SDS011;6207;49.308;7.336;2023-04-01T20:53:12;4.40;;;4.20;;
12288;SDS011;6207;49.308;7.336;2023-04-01T20:56:01;4.40;;;4.10;;
12288;SDS011;6207;49.308;7.336;2023-04-01T20:58:52;4.70;;;4.30;;
12288;SDS011;6207;49.308;7.336;2023-04-01T21:05:00;4.50;;;4.20;;
12288;SDS011;6207;49.308;7.336;2023-04-01T21:10:39;4.33;;;4.03;;
12288;SDS011;6207;49.308;7.336;2023-04-01T21:13:24;3.70;;;3.50;;
12288;SDS011;6207;49.308;7.336;2023-04-01T21:24:33;4.53;;;4.23;;
12288;SDS011;6207;49.308;7.336;2023-04-01T21:27:13;4.47;;;4.13;;
12288;SDS011;6207;49.308;7.336;2023-04-01T21:29:58;5.17;;;4.67;;
12288;SDS011;6207;49.308;7.336;2023-04-01T21:32:49;4.33;;;4.03;;
12288;SDS011;6207;49.308;7.336;2023-04-01T21:36:14;4.07;;;3.87;;
12288;SDS011;6207;49.308;7.336;2023-04-01T21:38:43;4.10;;;3.80;;
12288;SDS011;6207;49.308;7.336;2023-04-01T21:41:30;4.63;;;4.33;;
12288;SDS011;6207;49.308;7.336;2023-04-01T21:47:20;4.00;;;3.60;;
12288;SDS011;6207;49.308;7.336;2023-04-01T22:04:55;3.87;;;3.67;;
12288;SDS011;6207;49.308;7.336;2023-04-01T22:07:37;4.47;;;4.27;;
12288;SDS011;6207;49.308;7.336;2023-04-01T22:13:16;4.80;;;4.40;;
12288;SDS011;6207;49.308;7.336;2023-04-01T22:15:53;4.43;;;4.13;;
12288;SDS011;6207;49.308;7.336;2023-04-01T22:18:32;4.60;;;4.20;;
12288;SDS011;6207;49.308;7.336;2023-04-01T22:23:42;4.30;;;4.10;;
12288;SDS011;6207;49.308;7.336;2023-04-01T22:26:50;4.47;;;4.17;;
12288;SDS011;6207;49.308;7.336;2023-04-01T22:32:11;4.83;;;4.33;;
12288;SDS011;6207;49.308;7.336;2023-04-01T22:34:49;4.17;;;3.87;;
12288;SDS011;6207;49.308;7.336;2023-04-01T22:37:37;4.40;;;4.00;;
12288;SDS011;6207;49.308;7.336;2023-04-01T22:40:17;5.50;;;4.00;;
12288;SDS011;6207;49.308;7.336;2023-04-01T22:43:08;5.17;;;4.77;;
12288;SDS011;6207;49.308;7.336;2023-04-01T22:48:43;5.37;;;4.90;;
12288;SDS011;6207;49.308;7.336;2023-04-01T22:57:02;6.77;;;4.50;;
12288;SDS011;6207;49.308;7.336;2023-04-01T22:59:41;5.23;;;4.83;;
12288;SDS011;6207;49.308;7.336;2023-04-01T23:02:21;5.03;;;4.50;;
12288;SDS011;6207;49.308;7.336;2023-04-01T23:05:03;5.10;;;4.70;;
12288;SDS011;6207;49.308;7.336;2023-04-01T23:07:56;5.17;;;4.73;;
12288;SDS011;6207;49.308;7.336;2023-04-01T23:10:57;4.80;;;4.33;;
12288;SDS011;6207;49.308;7.336;2023-04-01T23:13:32;4.83;;;4.53;;
12288;SDS011;6207;49.308;7.336;2023-04-01T23:16:04;5.10;;;4.50;;
12288;SDS011;6207;49.308;7.336;2023-04-01T23:18:37;5.57;;;4.60;;
12288;SDS011;6207;49.308;7.336;2023-04-01T23:21:21;4.60;;;4.30;;
12288;SDS011;6207;49.308;7.336;2023-04-01T23:23:53;5.60;;;4.60;;
12288;SDS011;6207;49.308;7.336;2023-04-01T23:26:34;5.50;;;5.10;;
12288;SDS011;6207;49.308;7.336;2023-04-01T23:29:15;4.93;;;4.63;;
12288;SDS011;6207;49.308;7.336;2023-04-01T23:31:47;5.37;;;4.97;;
12288;SDS011;6207;49.308;7.336;2023-04-01T23:34:23;5.00;;;4.70;;
12288;SDS011;6207;49.308;7.336;2023-04-01T23:37:05;5.27;;;4.87;;
12288;SDS011;6207;49.308;7.336;2023-04-01T23:42:38;5.50;;;5.10;;
12288;SDS011;6207;49.308;7.336;2023-04-01T23:45:14;5.10;;;4.80;;
12288;SDS011;6207;49.308;7.336;2023-04-01T23:47:46;5.43;;;5.03;;
12288;SDS011;6207;49.308;7.336;2023-04-01T23:50:16;5.00;;;4.70;;
12288;SDS011;6207;49.308;7.336;2023-04-01T23:52:52;4.77;;;4.43;;
12288;SDS011;6207;49.308;7.336;2023-04-01T23:55:35;4.80;;;4.40;;
